sensor_id;sensor_type;location;lat;lon;timestamp;pressure;altitude;pressure_sealevel;temperature
34807;BMP280;18310;55.586;12.286;2024-01-25T00:00:21;100568.25;;;13.06
34807;BMP280;18310;55.586;12.286;2024-01-25T00:03:24;100567.09;;;13.07
34807;BMP280;18310;55.586;12.286;2024-01-25T00:06:27;100582.66;;;13.03
34807;BMP280;18310;55.586;12.286;2024-01-25T00:09:30;100592.50;;;13.08
34807;BMP280;18310;55.586;12.286;2024-01-25T00:12:33;100592.94;;;13.14
34807;BMP280;18310;55.586;12.286;2024-01-25T00:15:38;100619.75;;;13.04
34807;BMP280;18310;55.586;12.286;2024-01-25T00:19:07;100620.81;;;12.96
34807;BMP280;18310;55.586;12.286;2024-01-25T00:22:10;100634.16;;;13.01
34807;BMP280;18310;55.586;12.286;2024-01-25T00:25:14;100632.19;;;13.02
34807;BMP280;18310;55.586;12.286;2024-01-25T00:28:17;100658.63;;;12.94
34807;BMP280;18310;55.586;12.286;2024-01-25T00:31:21;100643.81;;;12.95
34807;BMP280;18310;55.586;12.286;2024-01-25T00:34:26;100635.72;;;13.02
34807;BMP280;18310;55.586;12.286;2024-01-25T00:37:30;100630.59;;;12.97
34807;BMP280;18310;55.586;12.286;2024-01-25T00:40:34;100636.50;;;13.03
34807;BMP280;18310;55.586;12.286;2024-01-25T00:43:37;100653.28;;;13.01
34807;BMP280;18310;55.586;12.286;2024-01-25T00:46:41;100638.59;;;13.10
34807;BMP280;18310;55.586;12.286;2024-01-25T00:49:47;100634.56;;;13.03
34807;BMP280;18310;55.586;12.286;2024-01-25T00:52:51;100670.72;;;12.93
34807;BMP280;18310;55.586;12.286;2024-01-25T00:55:54;100678.09;;;12.93
34807;BMP280;18310;55.586;12.286;2024-01-25T00:58:58;100662.50;;;12.93
34807;BMP280;18310;55.586;12.286;2024-01-25T01:02:04;100677.19;;;13.08
34807;BMP280;18310;55.586;12.286;2024-01-25T01:05:16;100690.63;;;12.94
34807;BMP280;18310;55.586;12.286;2024-01-25T01:08:21;100685.94;;;12.94
34807;BMP280;18310;55.586;12.286;2024-01-25T01:11:24;100694.63;;;13.00
34807;BMP280;18310;55.586;12.286;2024-01-25T01:14:27;100704.28;;;12.94
34807;BMP280;18310;55.586;12.286;2024-01-25T01:17:30;100705.25;;;13.05
34807;BMP280;18310;55.586;12.286;2024-01-25T01:20:35;100715.66;;;12.96
34807;BMP280;18310;55.586;12.286;2024-01-25T01:23:38;100711.69;;;12.93
34807;BMP280;18310;55.586;12.286;2024-01-25T01:26:41;100722.50;;;12.86
34807;BMP280;18310;55.586;12.286;2024-01-25T01:29:44;100729.41;;;12.80
34807;BMP280;18310;55.586;12.286;2024-01-25T01:32:48;100737.97;;;12.79
34807;BMP280;18310;55.586;12.286;2024-01-25T01:35:53;100709.59;;;12.83
34807;BMP280;18310;55.586;12.286;2024-01-25T01:38:56;100736.63;;;12.92
34807;BMP280;18310;55.586;12.286;2024-01-25T01:42:00;100747.09;;;12.86
34807;BMP280;18310;55.586;12.286;2024-01-25T01:45:04;100766.16;;;12.83
34807;BMP280;18310;55.586;12.286;2024-01-25T01:48:07;100776.16;;;12.75
34807;BMP280;18310;55.586;12.286;2024-01-25T01:51:12;100789.84;;;12.79
34807;BMP280;18310;55.586;12.286;2024-01-25T01:54:16;100796.06;;;12.76
34807;BMP280;18310;55.586;12.286;2024-01-25T01:57:19;100801.44;;;12.72
34807;BMP280;18310;55.586;12.286;2024-01-25T02:00:24;100805.09;;;12.80
34807;BMP280;18310;55.586;12.286;2024-01-25T02:03:28;100791.31;;;12.73
34807;BMP280;18310;55.586;12.286;2024-01-25T02:06:33;100815.81;;;12.69
34807;BMP280;18310;55.586;12.286;2024-01-25T02:09:37;100813.84;;;12.66
34807;BMP280;18310;55.586;12.286;2024-01-25T02:12:40;100817.34;;;12.67
34807;BMP280;18310;55.586;12.286;2024-01-25T02:15:43;100816.63;;;12.70
34807;BMP280;18310;55.586;12.286;2024-01-25T02:18:46;100827.88;;;12.65
34807;BMP280;18310;55.586;12.286;2024-01-25T02:21:53;100835.53;;;12.59
34807;BMP280;18310;55.586;12.286;2024-01-25T02:24:58;100835.47;;;12.55
34807;BMP280;18310;55.586;12.286;2024-01-25T02:28:02;100853.84;;;12.58
34807;BMP280;18310;55.586;12.286;2024-01-25T02:31:05;100848.38;;;12.58
34807;BMP280;18310;55.586;12.286;2024-01-25T02:34:09;100849.31;;;12.47
34807;BMP280;18310;55.586;12.286;2024-01-25T02:37:13;100854.78;;;12.47
34807;BMP280;18310;55.586;12.286;2024-01-25T02:40:18;100879.66;;;12.42
34807;BMP280;18310;55.586;12.286;2024-01-25T02:43:22;100858.78;;;12.34
34807;BMP280;18310;55.586;12.286;2024-01-25T02:46:25;100864.63;;;12.32
34807;BMP280;18310;55.586;12.286;2024-01-25T02:49:29;100860.59;;;12.26
34807;BMP280;18310;55.586;12.286;2024-01-25T02:52:33;100856.91;;;12.19
34807;BMP280;18310;55.586;12.286;2024-01-25T02:55:37;100881.53;;;12.22
34807;BMP280;18310;55.586;12.286;2024-01-25T02:58:41;100886.84;;;12.15
34807;BMP280;18310;55.586;12.286;2024-01-25T03:01:45;100898.56;;;12.16
34807;BMP280;18310;55.586;12.286;2024-01-25T03:04:48;100897.63;;;12.08
34807;BMP280;18310;55.586;12.286;2024-01-25T03:07:52;100910.34;;;12.04
34807;BMP280;18310;55.586;12.286;2024-01-25T03:10:57;100911.50;;;12.03
34807;BMP280;18310;55.586;12.286;2024-01-25T03:14:00;100890.94;;;11.90
34807;BMP280;18310;55.586;12.286;2024-01-25T03:17:03;100917.31;;;12.01
34807;BMP280;18310;55.586;12.286;2024-01-25T03:20:14;100918.72;;;11.95
34807;BMP280;18310;55.586;12.286;2024-01-25T03:23:18;100932.97;;;11.89
34807;BMP280;18310;55.586;12.286;2024-01-25T03:26:23;100946.19;;;11.87
34807;BMP280;18310;55.586;12.286;2024-01-25T03:29:26;100947.25;;;11.82
34807;BMP280;18310;55.586;12.286;2024-01-25T03:32:33;100957.72;;;11.80
34807;BMP280;18310;55.586;12.286;2024-01-25T03:35:36;100954.28;;;11.83
34807;BMP280;18310;55.586;12.286;2024-01-25T03:38:40;100969.66;;;11.76
34807;BMP280;18310;55.586;12.286;2024-01-25T03:41:45;100968.88;;;11.75
34807;BMP280;18310;55.586;12.286;2024-01-25T03:44:48;100972.66;;;11.71
34807;BMP280;18310;55.586;12.286;2024-01-25T03:47:52;100981.63;;;11.71
34807;BMP280;18310;55.586;12.286;2024-01-25T03:50:55;100996.28;;;11.66
34807;BMP280;18310;55.586;12.286;2024-01-25T03:53:58;100997.88;;;11.67
34807;BMP280;18310;55.586;12.286;2024-01-25T03:57:04;100993.56;;;11.66
34807;BMP280;18310;55.586;12.286;2024-01-25T04:00:14;101022.41;;;11.67
34807;BMP280;18310;55.586;12.286;2024-01-25T04:03:18;101027.03;;;11.63
34807;BMP280;18310;55.586;12.286;2024-01-25T04:06:21;101029.81;;;11.67
34807;BMP280;18310;55.586;12.286;2024-01-25T04:09:25;101043.44;;;11.67
34807;BMP280;18310;55.586;12.286;2024-01-25T04:12:30;101057.19;;;11.71
34807;BMP280;18310;55.586;12.286;2024-01-25T04:15:35;101050.69;;;11.75
34807;BMP280;18310;55.586;12.286;2024-01-25T04:18:39;101054.19;;;11.76
34807;BMP280;18310;55.586;12.286;2024-01-25T04:21:42;101055.44;;;11.78
34807;BMP280;18310;55.586;12.286;2024-01-25T04:24:46;101085.91;;;11.80
34807;BMP280;18310;55.586;12.286;2024-01-25T04:27:53;101086.69;;;11.81
34807;BMP280;18310;55.586;12.286;2024-01-25T04:30:56;101092.81;;;11.78
34807;BMP280;18310;55.586;12.286;2024-01-25T04:34:00;101104.19;;;11.80
34807;BMP280;18310;55.586;12.286;2024-01-25T04:37:04;101089.84;;;11.83
34807;BMP280;18310;55.586;12.286;2024-01-25T04:40:14;101094.97;;;11.84
34807;BMP280;18310;55.586;12.286;2024-01-25T04:43:20;101108.28;;;11.86
34807;BMP280;18310;55.586;12.286;2024-01-25T04:46:41;101106.13;;;11.79
34807;BMP280;18310;55.586;12.286;2024-01-25T04:49:45;101104.19;;;11.80
34807;BMP280;18310;55.586;12.286;2024-01-25T04:52:49;101121.09;;;11.85
34807;BMP280;18310;55.586;12.286;2024-01-25T04:55:53;101134.28;;;11.83
34807;BMP280;18310;55.586;12.286;2024-01-25T04:58:57;101136.75;;;11.88
34807;BMP280;18310;55.586;12.286;2024-01-25T05:02:03;101135.09;;;11.84
34807;BMP280;18310;55.586;12.286;2024-01-25T05:05:07;101139.28;;;11.81
34807;BMP280;18310;55.586;12.286;2024-01-25T05:08:10;101152.75;;;11.90
34807;BMP280;18310;55.586;12.286;2024-01-25T05:11:14;101162.00;;;11.85
34807;BMP280;18310;55.586;12.286;2024-01-25T05:14:18;101171.88;;;11.90
34807;BMP280;18310;55.586;12.286;2024-01-25T05:17:22;101185.84;;;11.88
34807;BMP280;18310;55.586;12.286;2024-01-25T05:20:26;101193.16;;;11.84
34807;BMP280;18310;55.586;12.286;2024-01-25T05:23:34;101199.41;;;11.85
34807;BMP280;18310;55.586;12.286;2024-01-25T05:26:38;101214.41;;;11.79
34807;BMP280;18310;55.586;12.286;2024-01-25T05:29:41;101223.72;;;11.78
34807;BMP280;18310;55.586;12.286;2024-01-25T05:32:50;101216.09;;;11.83
34807;BMP280;18310;55.586;12.286;2024-01-25T05:35:56;101220.75;;;11.83
34807;BMP280;18310;55.586;12.286;2024-01-25T05:38:59;101238.63;;;11.80
34807;BMP280;18310;55.586;12.286;2024-01-25T05:42:03;101241.69;;;11.79
34807;BMP280;18310;55.586;12.286;2024-01-25T05:45:13;101245.44;;;11.74
34807;BMP280;18310;55.586;12.286;2024-01-25T05:48:18;101249.75;;;11.75
34807;BMP280;18310;55.586;12.286;2024-01-25T05:51:22;101247.50;;;11.65
34807;BMP280;18310;55.586;12.286;2024-01-25T05:54:26;101242.16;;;11.68
34807;BMP280;18310;55.586;12.286;2024-01-25T05:57:29;101286.56;;;11.69
34807;BMP280;18310;55.586;12.286;2024-01-25T06:00:33;101290.00;;;11.66
34807;BMP280;18310;55.586;12.286;2024-01-25T06:03:38;101273.63;;;11.66
34807;BMP280;18310;55.586;12.286;2024-01-25T06:06:41;101294.22;;;11.63
34807;BMP280;18310;55.586;12.286;2024-01-25T06:09:45;101296.47;;;11.61
34807;BMP280;18310;55.586;12.286;2024-01-25T06:12:48;101306.78;;;11.68
34807;BMP280;18310;55.586;12.286;2024-01-25T06:15:53;101319.63;;;11.67
34807;BMP280;18310;55.586;12.286;2024-01-25T06:18:58;101326.00;;;11.59
34807;BMP280;18310;55.586;12.286;2024-01-25T06:22:02;101337.03;;;11.63
34807;BMP280;18310;55.586;12.286;2024-01-25T06:25:06;101351.22;;;11.68
34807;BMP280;18310;55.586;12.286;2024-01-25T06:28:10;101334.06;;;11.68
34807;BMP280;18310;55.586;12.286;2024-01-25T06:31:14;101357.47;;;11.69
34807;BMP280;18310;55.586;12.286;2024-01-25T06:34:19;101363.88;;;11.73
34807;BMP280;18310;55.586;12.286;2024-01-25T06:37:22;101372.81;;;11.74
34807;BMP280;18310;55.586;12.286;2024-01-25T06:40:26;101375.22;;;11.75
34807;BMP280;18310;55.586;12.286;2024-01-25T06:43:29;101382.16;;;11.73
34807;BMP280;18310;55.586;12.286;2024-01-25T06:46:33;101389.53;;;11.72
34807;BMP280;18310;55.586;12.286;2024-01-25T06:49:38;101399.84;;;11.66
34807;BMP280;18310;55.586;12.286;2024-01-25T06:52:41;101407.56;;;11.64
34807;BMP280;18310;55.586;12.286;2024-01-25T06:55:46;101406.34;;;11.62
34807;BMP280;18310;55.586;12.286;2024-01-25T06:58:49;101413.78;;;11.53
34807;BMP280;18310;55.586;12.286;2024-01-25T07:01:54;101429.25;;;11.49
34807;BMP280;18310;55.586;12.286;2024-01-25T07:05:21;101428.59;;;11.52
34807;BMP280;18310;55.586;12.286;2024-01-25T07:08:24;101436.66;;;11.48
34807;BMP280;18310;55.586;12.286;2024-01-25T07:11:28;101456.06;;;11.47
34807;BMP280;18310;55.586;12.286;2024-01-25T07:15:26;101456.75;;;11.44
34807;BMP280;18310;55.586;12.286;2024-01-25T07:18:30;101465.56;;;11.41
34807;BMP280;18310;55.586;12.286;2024-01-25T07:21:34;101468.06;;;11.34
34807;BMP280;18310;55.586;12.286;2024-01-25T07:24:37;101465.19;;;11.30
34807;BMP280;18310;55.586;12.286;2024-01-25T07:27:43;101495.06;;;11.27
34807;BMP280;18310;55.586;12.286;2024-01-25T07:30:48;101501.00;;;11.29
34807;BMP280;18310;55.586;12.286;2024-01-25T07:33:53;101519.91;;;11.25
34807;BMP280;18310;55.586;12.286;2024-01-25T07:36:57;101518.78;;;11.26
34807;BMP280;18310;55.586;12.286;2024-01-25T07:40:00;101518.31;;;11.24
34807;BMP280;18310;55.586;12.286;2024-01-25T07:43:05;101523.44;;;11.26
34807;BMP280;18310;55.586;12.286;2024-01-25T07:46:31;101526.50;;;11.24
34807;BMP280;18310;55.586;12.286;2024-01-25T07:49:35;101535.00;;;11.22
34807;BMP280;18310;55.586;12.286;2024-01-25T07:52:38;101538.50;;;11.23
34807;BMP280;18310;55.586;12.286;2024-01-25T07:55:42;101545.72;;;11.28
34807;BMP280;18310;55.586;12.286;2024-01-25T07:58:45;101545.38;;;11.29
34807;BMP280;18310;55.586;12.286;2024-01-25T08:01:51;101565.69;;;11.32
34807;BMP280;18310;55.586;12.286;2024-01-25T08:04:55;101564.88;;;11.31
34807;BMP280;18310;55.586;12.286;2024-01-25T08:08:00;101571.75;;;11.37
34807;BMP280;18310;55.586;12.286;2024-01-25T08:11:03;101578.47;;;11.40
34807;BMP280;18310;55.586;12.286;2024-01-25T08:14:07;101576.31;;;11.45
34807;BMP280;18310;55.586;12.286;2024-01-25T08:17:12;101595.88;;;11.47
34807;BMP280;18310;55.586;12.286;2024-01-25T08:20:16;101595.88;;;11.47
34807;BMP280;18310;55.586;12.286;2024-01-25T08:23:20;101613.16;;;11.51
34807;BMP280;18310;55.586;12.286;2024-01-25T08:26:24;101616.69;;;11.52
34807;BMP280;18310;55.586;12.286;2024-01-25T08:29:27;101628.06;;;11.54
34807;BMP280;18310;55.586;12.286;2024-01-25T08:32:32;101637.97;;;11.58
34807;BMP280;18310;55.586;12.286;2024-01-25T08:35:35;101641.28;;;11.64
34807;BMP280;18310;55.586;12.286;2024-01-25T08:38:39;101651.53;;;11.67
34807;BMP280;18310;55.586;12.286;2024-01-25T08:41:43;101655.84;;;11.68
34807;BMP280;18310;55.586;12.286;2024-01-25T08:44:47;101659.66;;;11.55
34807;BMP280;18310;55.586;12.286;2024-01-25T08:47:53;101669.44;;;11.56
34807;BMP280;18310;55.586;12.286;2024-01-25T08:50:58;101676.13;;;11.58
34807;BMP280;18310;55.586;12.286;2024-01-25T08:54:02;101676.47;;;11.57
34807;BMP280;18310;55.586;12.286;2024-01-25T08:57:06;101688.66;;;11.59
34807;BMP280;18310;55.586;12.286;2024-01-25T09:00:10;101691.38;;;11.59
34807;BMP280;18310;55.586;12.286;2024-01-25T09:03:15;101707.09;;;11.62
34807;BMP280;18310;55.586;12.286;2024-01-25T09:06:19;101704.13;;;11.67
34807;BMP280;18310;55.586;12.286;2024-01-25T09:09:24;101710.41;;;11.68
34807;BMP280;18310;55.586;12.286;2024-01-25T09:12:28;101715.22;;;11.71
34807;BMP280;18310;55.586;12.286;2024-01-25T09:15:31;101725.09;;;11.76
34807;BMP280;18310;55.586;12.286;2024-01-25T09:18:36;101750.59;;;11.80
34807;BMP280;18310;55.586;12.286;2024-01-25T09:21:40;101741.09;;;11.86
34807;BMP280;18310;55.586;12.286;2024-01-25T09:24:45;101746.66;;;11.89
34807;BMP280;18310;55.586;12.286;2024-01-25T09:27:49;101752.25;;;11.93
34807;BMP280;18310;55.586;12.286;2024-01-25T09:30:52;101737.03;;;11.92
34807;BMP280;18310;55.586;12.286;2024-01-25T09:33:58;101763.97;;;11.93
34807;BMP280;18310;55.586;12.286;2024-01-25T09:37:02;101770.00;;;11.99
34807;BMP280;18310;55.586;12.286;2024-01-25T09:40:06;101772.16;;;11.93
34807;BMP280;18310;55.586;12.286;2024-01-25T09:43:11;101784.47;;;11.99
34807;BMP280;18310;55.586;12.286;2024-01-25T09:46:14;101788.13;;;12.03
34807;BMP280;18310;55.586;12.286;2024-01-25T09:49:20;101800.00;;;12.07
34807;BMP280;18310;55.586;12.286;2024-01-25T09:52:24;101815.03;;;12.13
34807;BMP280;18310;55.586;12.286;2024-01-25T09:55:29;101798.06;;;12.08
34807;BMP280;18310;55.586;12.286;2024-01-25T09:58:37;101806.03;;;12.13
34807;BMP280;18310;55.586;12.286;2024-01-25T10:01:41;101816.75;;;12.18
34807;BMP280;18310;55.586;12.286;2024-01-25T10:04:49;101829.94;;;12.16
34807;BMP280;18310;55.586;12.286;2024-01-25T10:08:13;101838.28;;;12.20
34807;BMP280;18310;55.586;12.286;2024-01-25T10:11:17;101847.91;;;12.17
34807;BMP280;18310;55.586;12.286;2024-01-25T10:14:21;101854.31;;;12.21
34807;BMP280;18310;55.586;12.286;2024-01-25T10:17:24;101865.69;;;12.23
34807;BMP280;18310;55.586;12.286;2024-01-25T10:20:48;101858.13;;;12.29
34807;BMP280;18310;55.586;12.286;2024-01-25T10:23:54;101873.47;;;12.33
34807;BMP280;18310;55.586;12.286;2024-01-25T10:27:01;101869.28;;;12.36
34807;BMP280;18310;55.586;12.286;2024-01-25T10:30:05;101896.00;;;12.30
34807;BMP280;18310;55.586;12.286;2024-01-25T10:33:10;101891.13;;;12.36
34807;BMP280;18310;55.586;12.286;2024-01-25T10:36:13;101896.28;;;12.37
34807;BMP280;18310;55.586;12.286;2024-01-25T10:39:18;101910.63;;;12.46
34807;BMP280;18310;55.586;12.286;2024-01-25T10:42:23;101916.84;;;12.55
34807;BMP280;18310;55.586;12.286;2024-01-25T10:45:27;101930.44;;;12.64
34807;BMP280;18310;55.586;12.286;2024-01-25T10:48:31;101923.69;;;12.62
34807;BMP280;18310;55.586;12.286;2024-01-25T10:51:35;101950.09;;;12.78
34807;BMP280;18310;55.586;12.286;2024-01-25T10:54:40;101952.84;;;12.78
34807;BMP280;18310;55.586;12.286;2024-01-25T10:57:45;101947.94;;;12.84
34807;BMP280;18310;55.586;12.286;2024-01-25T11:00:51;101950.47;;;12.89
34807;BMP280;18310;55.586;12.286;2024-01-25T11:03:55;101941.41;;;12.97
34807;BMP280;18310;55.586;12.286;2024-01-25T11:07:05;101945.38;;;12.99
34807;BMP280;18310;55.586;12.286;2024-01-25T11:10:16;101947.00;;;13.00
34807;BMP280;18310;55.586;12.286;2024-01-25T11:13:24;101952.59;;;13.04
34807;BMP280;18310;55.586;12.286;2024-01-25T11:16:30;101963.63;;;13.07
34807;BMP280;18310;55.586;12.286;2024-01-25T11:19:35;101952.34;;;12.97
34807;BMP280;18310;55.586;12.286;2024-01-25T11:22:44;101954.31;;;13.09
34807;BMP280;18310;55.586;12.286;2024-01-25T11:25:49;101954.19;;;13.05
34807;BMP280;18310;55.586;12.286;2024-01-25T11:28:53;101950.66;;;13.04
34807;BMP280;18310;55.586;12.286;2024-01-25T11:31:56;101959.25;;;12.94
34807;BMP280;18310;55.586;12.286;2024-01-25T11:35:00;101955.47;;;12.87
34807;BMP280;18310;55.586;12.286;2024-01-25T11:38:04;101967.06;;;12.84
34807;BMP280;18310;55.586;12.286;2024-01-25T11:41:08;101968.44;;;12.78
34807;BMP280;18310;55.586;12.286;2024-01-25T11:44:12;101970.69;;;12.76
34807;BMP280;18310;55.586;12.286;2024-01-25T11:47:15;101978.16;;;12.67
34807;BMP280;18310;55.586;12.286;2024-01-25T11:50:21;101982.44;;;12.68
34807;BMP280;18310;55.586;12.286;2024-01-25T11:53:26;101977.34;;;12.66
34807;BMP280;18310;55.586;12.286;2024-01-25T11:56:33;101975.59;;;12.62
34807;BMP280;18310;55.586;12.286;2024-01-25T11:59:40;101974.31;;;12.59
34807;BMP280;18310;55.586;12.286;2024-01-25T12:02:43;101968.41;;;12.57
34807;BMP280;18310;55.586;12.286;2024-01-25T12:05:47;101967.72;;;12.60
34807;BMP280;18310;55.586;12.286;2024-01-25T12:08:51;101981.53;;;12.64
34807;BMP280;18310;55.586;12.286;2024-01-25T12:11:55;101973.50;;;12.58
34807;BMP280;18310;55.586;12.286;2024-01-25T12:14:59;101981.53;;;12.64
34807;BMP280;18310;55.586;12.286;2024-01-25T12:18:05;101991.88;;;12.58
34807;BMP280;18310;55.586;12.286;2024-01-25T12:21:09;102001.31;;;12.60
34807;BMP280;18310;55.586;12.286;2024-01-25T12:24:12;102010.63;;;12.59
34807;BMP280;18310;55.586;12.286;2024-01-25T12:27:17;102020.44;;;12.60
34807;BMP280;18310;55.586;12.286;2024-01-25T12:30:20;102019.69;;;12.51
34807;BMP280;18310;55.586;12.286;2024-01-25T12:33:24;102032.03;;;12.57
34807;BMP280;18310;55.586;12.286;2024-01-25T12:36:53;102021.09;;;12.57
34807;BMP280;18310;55.586;12.286;2024-01-25T12:39:57;102022.69;;;12.58
34807;BMP280;18310;55.586;12.286;2024-01-25T12:43:01;102019.38;;;12.53
34807;BMP280;18310;55.586;12.286;2024-01-25T12:46:05;102017.47;;;12.45
34807;BMP280;18310;55.586;12.286;2024-01-25T12:49:18;102023.88;;;12.49
34807;BMP280;18310;55.586;12.286;2024-01-25T12:52:25;102023.88;;;12.49
34807;BMP280;18310;55.586;12.286;2024-01-25T12:55:29;102025.50;;;12.50
34807;BMP280;18310;55.586;12.286;2024-01-25T12:58:33;102024.69;;;12.49
34807;BMP280;18310;55.586;12.286;2024-01-25T13:01:37;102041.22;;;12.53
34807;BMP280;18310;55.586;12.286;2024-01-25T13:04:41;102050.69;;;12.55
34807;BMP280;18310;55.586;12.286;2024-01-25T13:07:46;102061.88;;;12.63
34807;BMP280;18310;55.586;12.286;2024-01-25T13:11:12;102063.94;;;12.66
34807;BMP280;18310;55.586;12.286;2024-01-25T13:14:16;102063.63;;;12.67
34807;BMP280;18310;55.586;12.286;2024-01-25T13:17:19;102061.22;;;12.66
34807;BMP280;18310;55.586;12.286;2024-01-25T13:20:23;102069.75;;;12.64
34807;BMP280;18310;55.586;12.286;2024-01-25T13:23:27;102063.16;;;12.65
34807;BMP280;18310;55.586;12.286;2024-01-25T13:26:34;102052.72;;;12.58
34807;BMP280;18310;55.586;12.286;2024-01-25T13:29:37;102069.22;;;12.71
34807;BMP280;18310;55.586;12.286;2024-01-25T13:32:40;102066.94;;;12.73
34807;BMP280;18310;55.586;12.286;2024-01-25T13:35:44;102064.69;;;12.75
34807;BMP280;18310;55.586;12.286;2024-01-25T13:38:47;102059.91;;;12.72
34807;BMP280;18310;55.586;12.286;2024-01-25T13:42:11;102035.88;;;12.56
34807;BMP280;18310;55.586;12.286;2024-01-25T13:45:15;102057.69;;;12.65
34807;BMP280;18310;55.586;12.286;2024-01-25T13:48:18;102063.94;;;12.66
34807;BMP280;18310;55.586;12.286;2024-01-25T13:51:22;102075.69;;;12.66
34807;BMP280;18310;55.586;12.286;2024-01-25T13:54:26;102086.16;;;12.64
34807;BMP280;18310;55.586;12.286;2024-01-25T13:57:30;102091.28;;;12.66
34807;BMP280;18310;55.586;12.286;2024-01-25T14:00:34;102097.53;;;12.66
34807;BMP280;18310;55.586;12.286;2024-01-25T14:03:37;102101.75;;;12.64
34807;BMP280;18310;55.586;12.286;2024-01-25T14:06:46;102106.84;;;12.65
34807;BMP280;18310;55.586;12.286;2024-01-25T14:09:49;102107.66;;;12.66
34807;BMP280;18310;55.586;12.286;2024-01-25T14:12:56;102112.66;;;12.64
34807;BMP280;18310;55.586;12.286;2024-01-25T14:16:00;102119.09;;;12.59
34807;BMP280;18310;55.586;12.286;2024-01-25T14:19:04;102131.16;;;12.58
34807;BMP280;18310;55.586;12.286;2024-01-25T14:22:09;102118.19;;;12.55
34807;BMP280;18310;55.586;12.286;2024-01-25T14:25:30;102120.56;;;12.56
34807;BMP280;18310;55.586;12.286;2024-01-25T14:28:34;102122.69;;;12.51
34807;BMP280;18310;55.586;12.286;2024-01-25T14:31:38;102121.41;;;12.48
34807;BMP280;18310;55.586;12.286;2024-01-25T14:34:41;102119.03;;;12.38
34807;BMP280;18310;55.586;12.286;2024-01-25T14:37:45;102126.09;;;12.39
34807;BMP280;18310;55.586;12.286;2024-01-25T14:40:48;102131.09;;;12.37
34807;BMP280;18310;55.586;12.286;2024-01-25T14:44:02;102133.03;;;12.37
34807;BMP280;18310;55.586;12.286;2024-01-25T14:47:08;102130.47;;;12.32
34807;BMP280;18310;55.586;12.286;2024-01-25T14:50:14;102124.69;;;12.25
34807;BMP280;18310;55.586;12.286;2024-01-25T14:53:17;102128.44;;;12.20
34807;BMP280;18310;55.586;12.286;2024-01-25T14:56:21;102138.41;;;12.16
34807;BMP280;18310;55.586;12.286;2024-01-25T14:59:25;102138.53;;;12.11
34807;BMP280;18310;55.586;12.286;2024-01-25T15:02:29;102144.19;;;12.06
34807;BMP280;18310;55.586;12.286;2024-01-25T15:05:33;102147.88;;;12.01
34807;BMP280;18310;55.586;12.286;2024-01-25T15:08:36;102155.94;;;11.98
34807;BMP280;18310;55.586;12.286;2024-01-25T15:11:40;102153.03;;;11.94
34807;BMP280;18310;55.586;12.286;2024-01-25T15:14:47;102167.00;;;11.93
34807;BMP280;18310;55.586;12.286;2024-01-25T15:17:50;102160.25;;;11.90
34807;BMP280;18310;55.586;12.286;2024-01-25T15:20:54;102154.34;;;11.80
34807;BMP280;18310;55.586;12.286;2024-01-25T15:23:57;102168.78;;;11.80
34807;BMP280;18310;55.586;12.286;2024-01-25T15:27:01;102172.78;;;11.74
34807;BMP280;18310;55.586;12.286;2024-01-25T15:30:07;102165.06;;;11.67
34807;BMP280;18310;55.586;12.286;2024-01-25T15:33:11;102175.03;;;11.63
34807;BMP280;18310;55.586;12.286;2024-01-25T15:36:15;102176.63;;;11.56
34807;BMP280;18310;55.586;12.286;2024-01-25T15:39:20;102172.47;;;11.50
34807;BMP280;18310;55.586;12.286;2024-01-25T15:42:24;102178.53;;;11.38
34807;BMP280;18310;55.586;12.286;2024-01-25T15:45:35;102188.16;;;11.36
34807;BMP280;18310;55.586;12.286;2024-01-25T15:48:38;102158.09;;;11.10
34807;BMP280;18310;55.586;12.286;2024-01-25T15:51:42;102195.03;;;11.24
34807;BMP280;18310;55.586;12.286;2024-01-25T15:54:46;102198.19;;;11.18
34807;BMP280;18310;55.586;12.286;2024-01-25T15:57:49;102198.69;;;11.11
34807;BMP280;18310;55.586;12.286;2024-01-25T16:00:54;102206.66;;;11.08
34807;BMP280;18310;55.586;12.286;2024-01-25T16:03:58;102211.63;;;11.06
34807;BMP280;18310;55.586;12.286;2024-01-25T16:07:09;102203.44;;;10.97
34807;BMP280;18310;55.586;12.286;2024-01-25T16:10:12;102198.94;;;10.93
34807;BMP280;18310;55.586;12.286;2024-01-25T16:13:16;102203.72;;;10.87
34807;BMP280;18310;55.586;12.286;2024-01-25T16:16:21;102191.44;;;10.67
34807;BMP280;18310;55.586;12.286;2024-01-25T16:19:24;102202.19;;;10.72
34807;BMP280;18310;55.586;12.286;2024-01-25T16:22:28;102206.66;;;10.68
34807;BMP280;18310;55.586;12.286;2024-01-25T16:25:32;102204.69;;;10.60
34807;BMP280;18310;55.586;12.286;2024-01-25T16:28:35;102207.91;;;10.62
34807;BMP280;18310;55.586;12.286;2024-01-25T16:31:40;102207.72;;;10.59
34807;BMP280;18310;55.586;12.286;2024-01-25T16:34:44;102219.25;;;10.56
34807;BMP280;18310;55.586;12.286;2024-01-25T16:37:48;102217.94;;;10.53
34807;BMP280;18310;55.586;12.286;2024-01-25T16:40:52;102213.75;;;10.47
34807;BMP280;18310;55.586;12.286;2024-01-25T16:43:55;102220.31;;;10.46
34807;BMP280;18310;55.586;12.286;2024-01-25T16:47:07;102207.31;;;10.43
34807;BMP280;18310;55.586;12.286;2024-01-25T16:50:11;102205.53;;;10.39
34807;BMP280;18310;55.586;12.286;2024-01-25T16:53:16;102210.16;;;10.38
34807;BMP280;18310;55.586;12.286;2024-01-25T16:56:20;102207.25;;;10.34
34807;BMP280;18310;55.586;12.286;2024-01-25T16:59:23;102215.34;;;10.26
34807;BMP280;18310;55.586;12.286;2024-01-25T17:02:29;102228.16;;;10.25
34807;BMP280;18310;55.586;12.286;2024-01-25T17:05:32;102228.50;;;10.24
34807;BMP280;18310;55.586;12.286;2024-01-25T17:08:36;102231.53;;;10.22
34807;BMP280;18310;55.586;12.286;2024-01-25T17:11:40;102228.28;;;10.20
34807;BMP280;18310;55.586;12.286;2024-01-25T17:14:43;102224.25;;;10.18